Time;durP1;ratioP1;P1;durP2;ratioP2;P2;SDS_P1;SDS_P2;PMS_P1;PMS_P2;Temp;Humidity;BMP_temperature;BMP_pressure;BME280_temperature;BME280_humidity;BME280_pressure;Samples;Min_cycle;Max_cycle;Signal;HPM_P1;HPM_P2
2022/09/22 00:01:40;;;;;;;;;;;;;;;22.89;35.34;100985.27;104434;1309;72761;-84
2022/09/22 00:04:07;;;;;;;;;;;;;;;22.89;35.34;100983.30;104519;1309;59981;-86
2022/09/22 00:06:36;;;;;;;;;;;;;;;22.89;35.32;100981.16;104413;1311;61419;-82
2022/09/22 00:09:01;;;;;;;;;;;;;;;22.89;35.43;100980.81;104499;1308;61576;-82
2022/09/22 00:11:28;;;;;;;;;;;;;;;22.89;35.34;100981.52;104627;1310;61355;-84
2022/09/22 00:13:58;;;;;;;;;;;;;;;22.89;35.41;100980.09;104526;1308;61333;-85
2022/09/22 00:16:29;;;;;;;;;;;;;;;22.89;35.40;100979.54;104502;1309;61248;-85
2022/09/22 00:18:55;;;;;;;;;;;;;;;22.89;35.30;100978.48;104422;1311;61448;-85
2022/09/22 00:21:21;;;;;;;;;;;;;;;22.89;35.35;100975.58;104367;1312;61413;-86
2022/09/22 00:23:47;;;;;;;;;;;;;;;22.89;35.31;100975.41;104425;1311;61239;-85
2022/09/22 00:26:14;;;;;;;;;;;;;;;22.89;35.37;100973.27;104420;1311;61264;-83
2022/09/22 00:28:40;;;;;;;;;;;;;;;22.89;35.41;100969.33;104493;1309;61321;-87
2022/09/22 00:31:10;;;;;;;;;;;;;;;22.89;35.28;100974.17;104471;1309;61291;-83
2022/09/22 00:33:37;;;;;;;;;;;;;;;22.89;35.28;100971.86;104531;1308;74582;-83
2022/09/22 00:36:03;;;;;;;;;;;;;;;22.88;35.32;100971.35;104434;1310;61317;-83
2022/09/22 00:38:29;;;;;;;;;;;;;;;22.88;35.36;100971.16;104532;1308;61441;-84
2022/09/22 00:40:55;;;;;;;;;;;;;;;22.88;35.30;100968.15;104430;1311;61388;-84
2022/09/22 00:43:21;;;;;;;;;;;;;;;22.88;35.46;100966.33;104395;1311;61454;-84
2022/09/22 00:45:58;;;;;;;;;;;;;;;22.87;35.36;100963.52;104421;1310;61353;-83
2022/09/22 00:48:23;;;;;;;;;;;;;;;22.87;35.33;100967.64;104458;1308;61177;-85
2022/09/22 00:50:50;;;;;;;;;;;;;;;22.88;35.37;100968.49;104433;1310;61349;-87
2022/09/22 00:53:16;;;;;;;;;;;;;;;22.88;35.35;100971.56;104525;1308;61428;-88
2022/09/22 00:55:44;;;;;;;;;;;;;;;22.87;35.32;100971.95;104414;1309;61344;-85
2022/09/22 00:58:11;;;;;;;;;;;;;;;22.88;35.39;100974.27;104530;1309;61272;-84
2022/09/22 01:00:38;;;;;;;;;;;;;;;22.87;35.51;100971.08;104525;1310;72749;-84
2022/09/22 01:03:04;;;;;;;;;;;;;;;22.87;35.43;100968.40;104531;1308;75699;-83
2022/09/22 01:05:32;;;;;;;;;;;;;;;22.87;35.43;100968.77;104548;1308;61250;-87
2022/09/22 01:07:59;;;;;;;;;;;;;;;22.87;35.44;100968.77;104420;1310;61298;-86
2022/09/22 01:10:26;;;;;;;;;;;;;;;22.86;35.50;100967.36;104439;1309;61176;-85
2022/09/22 01:13:08;;;;;;;;;;;;;;;22.86;35.33;100967.53;104400;1310;75004;-84
2022/09/22 01:15:37;;;;;;;;;;;;;;;22.86;35.40;100966.81;104537;1308;61385;-84
2022/09/22 01:18:06;;;;;;;;;;;;;;;22.86;35.35;100968.60;104419;1309;62498;-84
2022/09/22 01:20:41;;;;;;;;;;;;;;;22.86;35.37;100970.41;104522;1309;73912;-84
2022/09/22 01:23:14;;;;;;;;;;;;;;;22.86;35.43;100972.61;104535;1308;75855;-84
2022/09/22 01:25:58;;;;;;;;;;;;;;;22.86;35.50;100969.54;104542;1308;61070;-88
2022/09/22 01:28:23;;;;;;;;;;;;;;;22.86;35.40;100967.06;104563;1309;61058;-83
2022/09/22 01:31:10;;;;;;;;;;;;;;;22.86;35.41;100966.50;104479;1309;60540;-85
2022/09/22 01:33:39;;;;;;;;;;;;;;;22.86;35.40;100964.52;104481;1309;75633;-84
2022/09/22 01:36:10;;;;;;;;;;;;;;;22.86;35.43;100970.98;104435;1311;61213;-84
2022/09/22 01:38:50;;;;;;;;;;;;;;;22.85;35.54;100963.50;104423;1311;61180;-83
2022/09/22 01:41:20;;;;;;;;;;;;;;;22.86;35.32;100969.56;104490;1309;72901;-85
2022/09/22 01:43:49;;;;;;;;;;;;;;;22.86;35.38;100968.67;104448;1311;75741;-84
2022/09/22 01:46:23;;;;;;;;;;;;;;;22.85;35.53;100971.74;104416;1311;61385;-83
2022/09/22 01:48:49;;;;;;;;;;;;;;;22.85;35.59;100973.58;104571;1308;61644;-85
2022/09/22 01:51:39;;;;;;;;;;;;;;;22.85;35.32;100972.30;104478;1309;61305;-84
2022/09/22 01:54:06;;;;;;;;;;;;;;;22.85;35.32;100976.24;104522;1308;75738;-81
2022/09/22 01:56:32;;;;;;;;;;;;;;;22.85;35.41;100980.02;104394;1311;61880;-83
2022/09/22 01:58:59;;;;;;;;;;;;;;;22.85;35.49;100979.84;104431;1311;61255;-84
2022/09/22 02:01:30;;;;;;;;;;;;;;;22.85;35.45;100977.33;104442;1310;61267;-87
2022/09/22 02:03:59;;;;;;;;;;;;;;;22.85;35.53;100975.17;104519;1309;75943;-84
2022/09/22 02:06:42;;;;;;;;;;;;;;;22.85;35.54;100973.95;104538;1308;61393;-84
2022/09/22 02:09:08;;;;;;;;;;;;;;;22.85;35.55;100972.69;104509;1309;61187;-83
2022/09/22 02:11:34;;;;;;;;;;;;;;;22.85;35.62;100973.58;104557;1308;61209;-84
2022/09/22 02:14:00;;;;;;;;;;;;;;;22.85;35.51;100973.41;104441;1310;61330;-85
2022/09/22 02:16:26;;;;;;;;;;;;;;;22.85;35.53;100978.81;104462;1308;61303;-86
2022/09/22 02:18:55;;;;;;;;;;;;;;;22.84;35.43;100973.45;104462;1308;61289;-83
2022/09/22 02:21:20;;;;;;;;;;;;;;;22.84;35.49;100975.43;104438;1309;71797;-84
2022/09/22 02:23:46;;;;;;;;;;;;;;;22.84;35.30;100972.01;104345;1310;61794;-82
2022/09/22 02:26:12;;;;;;;;;;;;;;;22.84;35.49;100974.52;104472;1308;61347;-83
2022/09/22 02:28:38;;;;;;;;;;;;;;;22.84;35.48;100970.98;104534;1308;59394;-82
2022/09/22 02:31:07;;;;;;;;;;;;;;;22.84;35.50;100976.02;104412;1310;61273;-83
2022/09/22 02:33:33;;;;;;;;;;;;;;;22.84;35.53;100977.80;104487;1309;61349;-84
2022/09/22 02:36:02;;;;;;;;;;;;;;;22.83;35.44;100977.28;104500;1308;61306;-84
2022/09/22 02:38:29;;;;;;;;;;;;;;;22.83;35.53;100978.92;104472;1308;61279;-83
2022/09/22 02:40:59;;;;;;;;;;;;;;;22.83;35.38;100981.77;104407;1311;74031;-83
2022/09/22 02:43:24;;;;;;;;;;;;;;;22.83;35.58;100975.70;104596;1308;75681;-84
2022/09/22 02:45:52;;;;;;;;;;;;;;;22.83;35.54;100978.02;104593;1308;61262;-85
2022/09/22 02:48:19;;;;;;;;;;;;;;;22.83;35.47;100976.80;104521;1309;59984;-85
2022/09/22 02:50:46;;;;;;;;;;;;;;;22.83;35.42;100980.54;104436;1310;73311;-83
2022/09/22 02:53:13;;;;;;;;;;;;;;;22.83;35.50;100982.69;104418;1310;75654;-84
2022/09/22 02:55:39;;;;;;;;;;;;;;;22.83;35.48;100988.10;104519;1308;61641;-84
2022/09/22 02:58:04;;;;;;;;;;;;;;;22.83;35.47;100987.22;104406;1309;61311;-84
2022/09/22 03:00:31;;;;;;;;;;;;;;;22.83;35.45;100987.36;104381;1312;61296;-84
2022/09/22 03:02:57;;;;;;;;;;;;;;;22.82;35.43;100987.77;104517;1308;61315;-83
2022/09/22 03:05:23;;;;;;;;;;;;;;;22.83;35.40;100988.13;104418;1311;61214;-86
2022/09/22 03:07:48;;;;;;;;;;;;;;;22.82;35.42;100989.39;104409;1311;61328;-84
2022/09/22 03:10:14;;;;;;;;;;;;;;;22.82;35.47;100996.77;104421;1311;60084;-84
2022/09/22 03:12:41;;;;;;;;;;;;;;;22.82;35.55;100995.52;104463;1311;61311;-83
2022/09/22 03:15:10;;;;;;;;;;;;;;;22.82;35.65;100995.36;104333;1311;75702;-83
2022/09/22 03:17:36;;;;;;;;;;;;;;;22.82;35.39;100998.40;104425;1311;61276;-84
2022/09/22 03:20:02;;;;;;;;;;;;;;;22.81;35.58;100995.38;104460;1309;61321;-83
2022/09/22 03:22:28;;;;;;;;;;;;;;;22.82;35.61;100997.00;104429;1311;61267;-84
2022/09/22 03:24:54;;;;;;;;;;;;;;;22.82;35.54;100998.45;104464;1308;61365;-85
2022/09/22 03:27:19;;;;;;;;;;;;;;;22.82;35.66;100999.69;104454;1311;61295;-84
2022/09/22 03:29:48;;;;;;;;;;;;;;;22.81;35.59;100998.09;104484;1309;61214;-84
2022/09/22 03:32:13;;;;;;;;;;;;;;;22.81;35.70;101000.59;104387;1311;61401;-81
2022/09/22 03:34:39;;;;;;;;;;;;;;;22.81;35.51;101003.14;104500;1309;61303;-84
2022/09/22 03:37:04;;;;;;;;;;;;;;;22.81;35.54;101000.42;104412;1311;61264;-83
2022/09/22 03:39:30;;;;;;;;;;;;;;;22.80;35.51;101000.13;104461;1310;61328;-85
2022/09/22 03:41:55;;;;;;;;;;;;;;;22.80;35.51;100999.59;104496;1309;61278;-88
2022/09/22 03:44:21;;;;;;;;;;;;;;;22.80;35.67;101001.25;104460;1310;62043;-83
2022/09/22 03:46:48;;;;;;;;;;;;;;;22.79;35.55;101001.89;104388;1309;61304;-84
2022/09/22 03:49:13;;;;;;;;;;;;;;;22.78;35.46;101007.30;104483;1309;61324;-82
2022/09/22 03:51:39;;;;;;;;;;;;;;;22.77;35.42;101009.70;104486;1309;61318;-84
2022/09/22 03:54:05;;;;;;;;;;;;;;;22.76;35.52;101008.48;104406;1311;62536;-82
2022/09/22 03:56:30;;;;;;;;;;;;;;;22.76;35.34;101007.43;104520;1309;61300;-84
2022/09/22 03:58:56;;;;;;;;;;;;;;;22.76;35.28;101008.31;104577;1309;74831;-84
2022/09/22 04:01:22;;;;;;;;;;;;;;;22.76;35.21;101011.91;104515;1309;61419;-85
2022/09/22 04:03:48;;;;;;;;;;;;;;;22.76;35.20;101007.77;104645;1308;61274;-87
2022/09/22 04:06:14;;;;;;;;;;;;;;;22.76;35.17;101003.83;104638;1309;61308;-84
2022/09/22 04:08:39;;;;;;;;;;;;;;;22.77;35.19;101007.04;104481;1308;61258;-87
2022/09/22 04:11:14;;;;;;;;;;;;;;;22.77;35.28;101008.63;104517;1309;61294;-85
2022/09/22 04:13:39;;;;;;;;;;;;;;;22.76;35.30;101006.15;104533;1308;61173;-85
2022/09/22 04:16:05;;;;;;;;;;;;;;;22.76;35.27;101003.48;104517;1309;61227;-84
2022/09/22 04:18:31;;;;;;;;;;;;;;;22.76;35.30;101006.58;104514;1309;60573;-86
2022/09/22 04:20:57;;;;;;;;;;;;;;;22.76;35.30;101005.29;104556;1309;61304;-83
2022/09/22 04:23:22;;;;;;;;;;;;;;;22.75;35.29;101004.61;104489;1309;61394;-84
2022/09/22 04:25:49;;;;;;;;;;;;;;;22.75;35.27;101005.71;104550;1309;61334;-84
2022/09/22 04:28:15;;;;;;;;;;;;;;;22.75;35.34;101009.13;104433;1309;72920;-86
2022/09/22 04:30:42;;;;;;;;;;;;;;;22.74;35.37;101005.98;104549;1309;61310;-87
2022/09/22 04:33:08;;;;;;;;;;;;;;;22.71;35.35;101008.67;104440;1308;61251;-84
2022/09/22 04:35:34;;;;;;;;;;;;;;;22.70;35.34;101009.35;104355;1311;61306;-83
2022/09/22 04:37:59;;;;;;;;;;;;;;;22.67;35.29;101011.15;104541;1309;61278;-83
2022/09/22 04:40:25;;;;;;;;;;;;;;;22.64;35.39;101011.91;104354;1308;61826;-84
2022/09/22 04:42:51;;;;;;;;;;;;;;;22.61;35.48;101013.38;104335;1308;61390;-82
2022/09/22 04:45:16;;;;;;;;;;;;;;;22.59;35.24;101013.00;104342;1310;61493;-82
2022/09/22 04:47:45;;;;;;;;;;;;;;;22.56;35.56;101010.17;104235;1311;61316;-82
2022/09/22 04:50:11;;;;;;;;;;;;;;;22.53;35.52;101005.57;104301;1309;73852;-82
2022/09/22 04:52:37;;;;;;;;;;;;;;;22.47;35.49;101006.15;104026;1308;61256;-83
2022/09/22 04:55:04;;;;;;;;;;;;;;;22.44;35.28;101006.02;104230;1307;61308;-83
2022/09/22 04:57:29;;;;;;;;;;;;;;;22.40;35.40;101012.41;104416;1308;60229;-83
2022/09/22 04:59:55;;;;;;;;;;;;;;;22.37;35.31;101010.89;104314;1309;61323;-82
2022/09/22 05:02:22;;;;;;;;;;;;;;;22.33;35.37;101008.60;104362;1309;61285;-81
2022/09/22 05:04:47;;;;;;;;;;;;;;;22.32;35.41;101004.58;104498;1308;61299;-83
2022/09/22 05:07:13;;;;;;;;;;;;;;;22.33;35.20;101004.70;104368;1308;61330;-83
2022/09/22 05:09:39;;;;;;;;;;;;;;;22.35;35.40;101002.96;104294;1308;63861;-82
2022/09/22 05:12:04;;;;;;;;;;;;;;;22.37;35.37;101005.85;104235;1308;59860;-82
2022/09/22 05:14:31;;;;;;;;;;;;;;;22.39;35.30;101008.40;104546;1307;61292;-83
2022/09/22 05:16:57;;;;;;;;;;;;;;;22.40;35.38;101012.41;104553;1309;69988;-84
2022/09/22 05:19:22;;;;;;;;;;;;;;;22.42;35.41;101008.50;104427;1308;61346;-82
2022/09/22 05:21:48;;;;;;;;;;;;;;;22.44;35.25;101012.34;104320;1308;61296;-83
2022/09/22 05:24:13;;;;;;;;;;;;;;;22.45;35.45;101014.41;104313;1308;61356;-84
2022/09/22 05:26:39;;;;;;;;;;;;;;;22.46;35.50;101016.85;104273;1308;61289;-83
2022/09/22 05:29:05;;;;;;;;;;;;;;;22.46;35.23;101011.50;104278;1308;61470;-83
2022/09/22 05:31:30;;;;;;;;;;;;;;;22.46;35.33;101011.11;104271;1308;61428;-81
2022/09/22 05:33:56;;;;;;;;;;;;;;;22.46;35.27;101015.39;104281;1308;60205;-83
2022/09/22 05:36:21;;;;;;;;;;;;;;;22.46;35.31;101016.83;104333;1308;60749;-83
2022/09/22 05:38:48;;;;;;;;;;;;;;;22.46;35.26;101016.69;104205;1309;75986;-85
2022/09/22 05:41:13;;;;;;;;;;;;;;;22.46;35.31;101017.60;104289;1308;61282;-84
2022/09/22 05:43:39;;;;;;;;;;;;;;;22.45;35.21;101014.41;104291;1308;61245;-83
2022/09/22 05:46:04;;;;;;;;;;;;;;;22.45;35.11;101014.92;104281;1311;61326;-83
2022/09/22 05:48:30;;;;;;;;;;;;;;;22.45;35.09;101015.70;104205;1309;60120;-83
2022/09/22 05:50:55;;;;;;;;;;;;;;;22.44;35.09;101014.84;104375;1308;61291;-82
2022/09/22 05:53:21;;;;;;;;;;;;;;;22.43;34.91;101015.06;104352;1308;60967;-86
2022/09/22 05:55:46;;;;;;;;;;;;;;;22.42;34.92;101016.42;104261;1308;61531;-83
2022/09/22 05:58:12;;;;;;;;;;;;;;;22.37;35.00;101021.43;104345;1308;61474;-82
2022/09/22 06:00:38;;;;;;;;;;;;;;;22.34;34.91;101020.92;104337;1308;61408;-83
2022/09/22 06:03:03;;;;;;;;;;;;;;;22.32;34.94;101024.65;104205;1311;61254;-83
2022/09/22 06:05:29;;;;;;;;;;;;;;;22.27;34.91;101024.08;104370;1309;60302;-84
2022/09/22 06:08:01;;;;;;;;;;;;;;;22.22;34.84;101025.34;104431;1308;61334;-82
2022/09/22 06:10:27;;;;;;;;;;;;;;;22.17;34.90;101023.38;104284;1308;73046;-84
2022/09/22 06:13:12;;;;;;;;;;;;;;;22.18;35.14;101026.89;104323;1309;61640;-83
2022/09/22 06:15:38;;;;;;;;;;;;;;;22.20;35.03;101026.03;104343;1308;61200;-83
2022/09/22 06:18:05;;;;;;;;;;;;;;;22.22;34.90;101026.08;104354;1308;61449;-83
2022/09/22 06:20:31;;;;;;;;;;;;;;;22.24;34.95;101023.24;104431;1308;73707;-83
2022/09/22 06:22:58;;;;;;;;;;;;;;;22.24;35.01;101023.77;104358;1308;61227;-82
2022/09/22 06:25:26;;;;;;;;;;;;;;;22.26;34.97;101019.33;104399;1308;63377;-82
2022/09/22 06:28:04;;;;;;;;;;;;;;;22.26;34.98;101014.65;104388;1309;61165;-82
2022/09/22 06:30:30;;;;;;;;;;;;;;;22.29;35.12;101013.05;104438;1308;72960;-83
2022/09/22 06:32:56;;;;;;;;;;;;;;;22.31;34.94;101015.95;104294;1309;61248;-83
2022/09/22 06:35:24;;;;;;;;;;;;;;;22.33;35.00;101018.63;104431;1309;61426;-83
2022/09/22 06:37:56;;;;;;;;;;;;;;;22.35;34.95;101014.76;104483;1308;61491;-84
2022/09/22 06:40:22;;;;;;;;;;;;;;;22.36;34.99;101020.96;104317;1308;73979;-83
2022/09/22 06:42:48;;;;;;;;;;;;;;;22.37;35.13;101023.23;104343;1309;61258;-84
2022/09/22 06:45:14;;;;;;;;;;;;;;;22.38;34.89;101026.75;104241;1308;59323;-84
2022/09/22 06:47:41;;;;;;;;;;;;;;;22.40;34.91;101028.24;104520;1308;61431;-83
2022/09/22 06:50:08;;;;;;;;;;;;;;;22.41;35.03;101026.16;104735;1309;61288;-83
2022/09/22 06:52:33;;;;;;;;;;;;;;;22.42;34.90;101025.91;104259;1309;60732;-80
2022/09/22 06:54:59;;;;;;;;;;;;;;;22.38;34.86;101030.52;104024;1309;60973;-83
2022/09/22 06:57:26;;;;;;;;;;;;;;;22.35;35.07;101034.27;104222;1311;60266;-83
2022/09/22 06:59:53;;;;;;;;;;;;;;;22.33;35.06;101033.03;104427;1309;61262;-82
2022/09/22 07:02:21;;;;;;;;;;;;;;;22.31;34.83;101034.41;104140;1309;61343;-85
2022/09/22 07:04:47;;;;;;;;;;;;;;;22.27;34.90;101036.48;104302;1312;61362;-83
2022/09/22 07:07:13;;;;;;;;;;;;;;;22.25;35.02;101034.98;104128;1309;61243;-83
2022/09/22 07:09:40;;;;;;;;;;;;;;;22.22;34.83;101036.46;104059;1309;61201;-83
2022/09/22 07:12:06;;;;;;;;;;;;;;;22.18;34.63;101029.95;104219;1309;61252;-82
2022/09/22 07:14:33;;;;;;;;;;;;;;;22.14;34.75;101025.42;104244;1311;61916;-82
2022/09/22 07:16:58;;;;;;;;;;;;;;;22.16;34.81;101029.96;104177;1311;60034;-83
2022/09/22 07:19:23;;;;;;;;;;;;;;;22.18;34.91;101029.77;104168;1311;61287;-82
2022/09/22 07:21:49;;;;;;;;;;;;;;;22.22;34.94;101028.41;104204;1311;61318;-83
2022/09/22 07:24:14;;;;;;;;;;;;;;;22.24;34.81;101033.79;104291;1309;61708;-84
2022/09/22 07:26:40;;;;;;;;;;;;;;;22.27;34.81;101032.34;104390;1308;60277;-83
2022/09/22 07:29:07;;;;;;;;;;;;;;;22.28;34.82;101030.99;104287;1308;61295;-82
2022/09/22 07:31:33;;;;;;;;;;;;;;;22.30;34.82;101034.98;104367;1308;63170;-82
2022/09/22 07:33:59;;;;;;;;;;;;;;;22.29;34.71;101037.26;104323;1308;61294;-83
2022/09/22 07:36:27;;;;;;;;;;;;;;;22.25;34.79;101034.44;104241;1311;61290;-82
2022/09/22 07:38:53;;;;;;;;;;;;;;;22.25;34.75;101033.05;104324;1308;61302;-82
2022/09/22 07:41:19;;;;;;;;;;;;;;;22.21;34.65;101033.30;104281;1309;61400;-82
2022/09/22 07:43:45;;;;;;;;;;;;;;;22.17;34.51;101033.83;104210;1309;61161;-83
2022/09/22 07:46:13;;;;;;;;;;;;;;;22.11;34.40;101032.42;104474;1308;60033;-82
2022/09/22 07:48:44;;;;;;;;;;;;;;;22.07;34.41;101031.60;104926;1309;59919;-82
2022/09/22 07:51:11;;;;;;;;;;;;;;;22.07;34.32;101028.38;104609;1309;73143;-82
2022/09/22 07:53:38;;;;;;;;;;;;;;;22.08;34.46;101025.25;104302;1308;74550;-83
2022/09/22 07:56:03;;;;;;;;;;;;;;;22.11;34.39;101028.14;104344;1308;61260;-81
2022/09/22 07:58:29;;;;;;;;;;;;;;;22.13;34.38;101031.58;104248;1308;61255;-84
2022/09/22 08:00:55;;;;;;;;;;;;;;;22.16;34.29;101032.81;104218;1309;61288;-83
2022/09/22 08:03:22;;;;;;;;;;;;;;;22.14;34.38;101034.41;104268;1308;59608;-84
2022/09/22 08:05:51;;;;;;;;;;;;;;;22.08;34.17;101035.55;104165;1308;59320;-83
2022/09/22 08:08:16;;;;;;;;;;;;;;;21.99;34.22;101037.23;104460;1309;61429;-83
2022/09/22 08:10:42;;;;;;;;;;;;;;;21.89;34.20;101034.01;104244;1308;62001;-83
2022/09/22 08:13:07;;;;;;;;;;;;;;;21.87;34.23;101032.35;104476;1308;61374;-83
2022/09/22 08:15:35;;;;;;;;;;;;;;;21.86;34.11;101032.64;104396;1307;61405;-82
2022/09/22 08:18:06;;;;;;;;;;;;;;;21.85;34.30;101033.06;104382;1308;59543;-83
2022/09/22 08:20:32;;;;;;;;;;;;;;;21.89;34.33;101034.16;104517;1307;73952;-83
2022/09/22 08:22:59;;;;;;;;;;;;;;;21.91;34.10;101029.70;104397;1307;61521;-84
2022/09/22 08:25:25;;;;;;;;;;;;;;;21.94;34.07;101028.25;104535;1308;61335;-83
2022/09/22 08:27:50;;;;;;;;;;;;;;;21.98;34.22;101024.60;104204;1309;59486;-83
2022/09/22 08:30:16;;;;;;;;;;;;;;;21.99;34.10;101023.62;104410;1309;59605;-83
2022/09/22 08:32:41;;;;;;;;;;;;;;;21.93;33.93;101020.06;104463;1308;61416;-84
2022/09/22 08:35:07;;;;;;;;;;;;;;;21.86;34.16;101013.06;104341;1309;61297;-84
2022/09/22 08:37:34;;;;;;;;;;;;;;;21.83;34.04;101008.96;104339;1309;61355;-84
2022/09/22 08:40:00;;;;;;;;;;;;;;;21.84;33.98;101005.17;104607;1308;61349;-83
2022/09/22 08:42:27;;;;;;;;;;;;;;;21.86;33.87;101005.02;104186;1308;61304;-82
2022/09/22 08:44:56;;;;;;;;;;;;;;;21.87;33.95;101003.71;104298;1309;59239;-83
2022/09/22 08:53:23;;;;;;;;;;;;;;;21.94;33.87;101004.25;104375;1309;73056;-83
2022/09/22 08:55:51;;;;;;;;;;;;;;;21.97;33.86;101000.45;104418;1307;59806;-85
2022/09/22 08:58:26;;;;;;;;;;;;;;;22.00;33.96;101005.65;104300;1309;61172;-83
2022/09/22 09:01:14;;;;;;;;;;;;;;;22.00;33.94;101003.67;104707;1308;61388;-82
2022/09/22 09:03:47;;;;;;;;;;;;;;;21.96;33.83;101001.77;104000;1308;72957;-83
2022/09/22 09:06:45;;;;;;;;;;;;;;;21.91;33.79;101000.00;105086;1308;74808;-83
2022/09/22 09:09:14;;;;;;;;;;;;;;;21.83;34.02;100996.62;104101;1308;61351;-83
2022/09/22 09:11:58;;;;;;;;;;;;;;;21.85;33.86;100997.23;103703;1308;62044;-82
2022/09/22 09:14:23;;;;;;;;;;;;;;;21.90;34.11;100996.65;104311;1308;74440;-84
2022/09/22 09:16:49;;;;;;;;;;;;;;;21.92;33.95;100998.13;104560;1309;61291;-83
2022/09/22 09:19:14;;;;;;;;;;;;;;;21.93;34.16;100995.70;104398;1308;59519;-83
2022/09/22 09:21:42;;;;;;;;;;;;;;;21.96;34.16;100989.94;104506;1308;61318;-83
2022/09/22 09:24:09;;;;;;;;;;;;;;;21.99;34.15;100992.05;104442;1308;59870;-82
2022/09/22 09:26:35;;;;;;;;;;;;;;;22.03;34.08;100991.77;104234;1308;61323;-82
2022/09/22 09:29:02;;;;;;;;;;;;;;;22.06;34.15;100989.59;104457;1307;61397;-82
2022/09/22 09:31:37;;;;;;;;;;;;;;;22.09;34.22;100987.75;104318;1308;61362;-82
2022/09/22 09:34:04;;;;;;;;;;;;;;;22.13;34.27;100982.16;104221;1309;73295;-84
2022/09/22 09:36:40;;;;;;;;;;;;;;;22.13;34.22;100982.13;104950;1308;74813;-82
2022/09/22 09:39:36;;;;;;;;;;;;;;;22.10;34.13;100979.27;104422;1309;62909;-83
2022/09/22 09:42:05;;;;;;;;;;;;;;;22.07;34.09;100979.84;103553;1317;61550;-84
2022/09/22 09:44:31;;;;;;;;;;;;;;;22.06;34.13;100978.83;103711;1317;72667;-82
2022/09/22 09:47:00;;;;;;;;;;;;;;;22.05;34.09;100975.89;103765;1317;75033;-85
2022/09/22 09:49:27;;;;;;;;;;;;;;;22.04;34.08;100980.45;103820;1317;59895;-82
2022/09/22 09:51:53;;;;;;;;;;;;;;;22.01;34.03;100973.09;103611;1317;62785;-83
2022/09/22 09:54:19;;;;;;;;;;;;;;;21.93;33.66;100978.67;104077;1316;59718;-83
2022/09/22 09:57:00;;;;;;;;;;;;;;;21.85;33.91;100977.66;103654;1317;61671;-83
2022/09/22 10:02:11;;;;;;;;;;;;;;;21.78;33.85;100973.52;103270;1317;697569;-81
2022/09/22 10:04:37;;;;;;;;;;;;;;;21.79;33.73;100975.20;103306;1316;73706;-82
2022/09/22 10:07:11;;;;;;;;;;;;;;;21.75;33.64;100972.48;103810;1317;61178;-83
2022/09/22 10:09:37;;;;;;;;;;;;;;;21.67;33.39;100972.31;104024;1316;61339;-83
2022/09/22 10:12:03;;;;;;;;;;;;;;;21.65;33.38;100970.86;103837;1316;59571;-83
2022/09/22 10:14:30;;;;;;;;;;;;;;;21.67;33.41;100966.05;103833;1316;60236;-84
2022/09/22 10:16:58;;;;;;;;;;;;;;;21.70;33.55;100967.81;103668;1317;59633;-83
2022/09/22 10:19:27;;;;;;;;;;;;;;;21.74;33.61;100965.91;104270;1308;61248;-83
2022/09/22 10:22:02;;;;;;;;;;;;;;;21.78;33.32;100966.90;104635;1309;61269;-83
2022/09/22 10:24:31;;;;;;;;;;;;;;;21.82;33.37;100964.10;104394;1308;73031;-83
2022/09/22 10:26:57;;;;;;;;;;;;;;;21.87;33.31;100963.74;104368;1309;76813;-83
2022/09/22 10:29:23;;;;;;;;;;;;;;;21.90;33.25;100954.02;104290;1308;59433;-82
2022/09/22 10:32:02;;;;;;;;;;;;;;;21.83;33.11;100948.42;104294;1308;61371;-84
2022/09/22 10:34:33;;;;;;;;;;;;;;;21.80;33.18;100946.00;105311;1308;72817;-83
2022/09/22 10:37:00;;;;;;;;;;;;;;;21.81;33.07;100946.23;104635;1307;74828;-83
2022/09/22 10:39:46;;;;;;;;;;;;;;;21.79;32.95;100940.33;104342;1309;61580;-83
2022/09/22 10:42:22;;;;;;;;;;;;;;;21.75;32.90;100948.59;104382;1308;60829;-83
2022/09/22 10:44:49;;;;;;;;;;;;;;;21.77;32.99;100946.72;104383;1308;73833;-83
2022/09/22 10:47:15;;;;;;;;;;;;;;;21.81;33.06;100942.68;104642;1309;61151;-83
2022/09/22 10:49:56;;;;;;;;;;;;;;;21.84;32.99;100943.48;104355;1308;61260;-83
2022/09/22 10:52:28;;;;;;;;;;;;;;;21.90;32.97;100943.59;104456;1308;60442;-83
2022/09/22 10:54:53;;;;;;;;;;;;;;;21.93;33.00;100940.70;104323;1309;72683;-83
2022/09/22 10:57:23;;;;;;;;;;;;;;;21.96;33.00;100940.34;104454;1308;61559;-83
2022/09/22 10:59:55;;;;;;;;;;;;;;;21.96;32.80;100937.09;104620;1308;61153;-84
2022/09/22 11:02:24;;;;;;;;;;;;;;;21.94;32.77;100933.64;104440;1308;61512;-82
2022/09/22 11:04:49;;;;;;;;;;;;;;;21.91;32.81;100935.50;104147;1309;73338;-81
2022/09/22 11:13:11;;;;;;;;;;;;;;;21.94;33.03;100935.10;103927;1311;61197;-82
2022/09/22 11:15:37;;;;;;;;;;;;;;;21.97;32.90;100936.31;104438;1308;73977;-83
2022/09/22 11:18:06;;;;;;;;;;;;;;;21.96;32.82;100936.78;104286;1309;61310;-83
2022/09/22 11:20:38;;;;;;;;;;;;;;;21.94;32.75;100936.02;105416;1306;59315;-84
2022/09/22 11:23:07;;;;;;;;;;;;;;;21.91;32.86;100933.52;104605;1308;60845;-84
2022/09/22 11:25:44;;;;;;;;;;;;;;;21.94;32.79;100927.92;104475;1307;72176;-83
2022/09/22 11:28:19;;;;;;;;;;;;;;;21.95;32.70;100926.80;104338;1309;73778;-83
2022/09/22 11:30:51;;;;;;;;;;;;;;;21.91;32.77;100921.52;104427;1309;61029;-83
2022/09/22 11:33:35;;;;;;;;;;;;;;;21.86;32.48;100916.71;104455;1308;61166;-83
2022/09/22 11:36:09;;;;;;;;;;;;;;;21.89;32.84;100914.33;104248;1309;74060;-84
2022/09/22 11:38:46;;;;;;;;;;;;;;;21.93;32.82;100912.58;104452;1307;74772;-82
2022/09/22 11:41:16;;;;;;;;;;;;;;;21.97;32.69;100906.56;104329;1308;61367;-84
2022/09/22 11:43:47;;;;;;;;;;;;;;;22.01;33.00;100900.18;104331;1308;61297;-83
2022/09/22 11:46:32;;;;;;;;;;;;;;;22.04;32.90;100897.41;104410;1307;72704;-83
2022/09/22 11:49:08;;;;;;;;;;;;;;;22.06;32.79;100901.92;104279;1308;74749;-82
2022/09/22 11:51:36;;;;;;;;;;;;;;;22.07;32.99;100899.73;104437;1307;62746;-84
2022/09/22 11:54:09;;;;;;;;;;;;;;;22.10;33.04;100899.89;104335;1307;61223;-84
2022/09/22 11:56:41;;;;;;;;;;;;;;;22.11;33.10;100892.80;104465;1308;72761;-84
2022/09/22 11:59:14;;;;;;;;;;;;;;;22.09;33.13;100891.71;104346;1309;75700;-82
2022/09/22 12:01:40;;;;;;;;;;;;;;;22.05;33.21;100887.18;104375;1306;61151;-84
2022/09/22 12:04:08;;;;;;;;;;;;;;;22.07;33.33;100887.86;104378;1308;59736;-82
2022/09/22 12:06:40;;;;;;;;;;;;;;;22.12;33.42;100885.59;104328;1309;73686;-83
2022/09/22 12:09:32;;;;;;;;;;;;;;;22.15;33.23;100885.94;104401;1308;75649;-83
2022/09/22 12:11:57;;;;;;;;;;;;;;;22.17;33.28;100886.46;104273;1308;61182;-82
2022/09/22 12:14:23;;;;;;;;;;;;;;;22.19;33.29;100887.91;104244;1310;61421;-84
2022/09/22 12:17:00;;;;;;;;;;;;;;;22.20;33.19;100878.66;104339;1307;61388;-85
2022/09/22 12:19:28;;;;;;;;;;;;;;;22.23;33.05;100880.09;104498;1309;74793;-83
2022/09/22 12:22:04;;;;;;;;;;;;;;;22.24;33.17;100878.21;104271;1309;61813;-84
2022/09/22 12:24:31;;;;;;;;;;;;;;;22.25;33.15;100875.77;104487;1309;61199;-83
2022/09/22 12:26:57;;;;;;;;;;;;;;;22.27;33.02;100873.69;104350;1308;73639;-85
2022/09/22 12:29:24;;;;;;;;;;;;;;;22.27;33.13;100875.10;104204;1309;61252;-83
2022/09/22 12:31:50;;;;;;;;;;;;;;;22.28;33.08;100875.78;104347;1308;61330;-83
2022/09/22 12:34:26;;;;;;;;;;;;;;;22.28;33.11;100869.85;104375;1308;61614;-83
2022/09/22 12:36:56;;;;;;;;;;;;;;;22.28;32.87;100864.84;104215;1310;72850;-82
2022/09/22 12:39:22;;;;;;;;;;;;;;;22.29;33.02;100866.77;104252;1311;75745;-83
2022/09/22 12:41:49;;;;;;;;;;;;;;;22.29;33.07;100867.11;104427;1310;61181;-83
2022/09/22 12:44:19;;;;;;;;;;;;;;;22.30;32.90;100867.55;104180;1309;61672;-82
2022/09/22 12:46:45;;;;;;;;;;;;;;;22.31;33.05;100864.80;104126;1310;71556;-83